Terminal Aerodrome Forecast
Issued by NWS Miami, FL

Current Version | Previous Version | Text Only | Print | Product List | Glossary On
Versions: 1 2 3 4 5 6 7 8 9 10 11 12 13 14 15 16 17 18 19 20 21 22 23 24 25 26 27 28 29 30 31 32 33 34 35 36 37 38 39 40 41 42 43 44 45 46 47 48 49
000
FTUS42 KMFL 180537
TAFAPF
TAF
KAPF 180537Z 1806/1906 VRB05KT P6SM VCSH SCT005 BKN070
      TEMPO 1806/1807 5SM SHRA BKN005
     FM181000 32004KT P6SM SCT015 BKN100
     FM181400 35006KT P6SM SCT035 BKN250
     FM181900 28008KT P6SM VCTS SCT035CB SCT150
     FM182300 05005KT P6SM VCSH SCT035 BKN250=

USA.gov is the U.S. government's official web portal to all federal, state and local government web resources and services.